createdAt,value
2024-02-24T00:00:02.520Z,5.00
2024-02-24T00:02:30.134Z,4.90
2024-02-24T00:04:58.744Z,4.90
2024-02-24T00:07:26.187Z,4.80
2024-02-24T00:09:53.633Z,4.90
2024-02-24T00:12:21.376Z,4.80
2024-02-24T00:14:48.774Z,4.80
2024-02-24T00:17:16.290Z,4.70
2024-02-24T00:19:43.674Z,4.70
2024-02-24T00:22:11.022Z,4.60
2024-02-24T00:24:39.584Z,4.60
2024-02-24T00:27:06.924Z,4.60
2024-02-24T00:29:34.360Z,4.60
2024-02-24T00:32:01.647Z,4.60
2024-02-24T00:34:29.232Z,4.70
2024-02-24T00:36:56.571Z,4.70
2024-02-24T00:39:24.031Z,4.70
2024-02-24T00:41:53.462Z,4.70
2024-02-24T00:44:20.808Z,4.70
2024-02-24T00:46:48.454Z,4.60
2024-02-24T00:49:15.825Z,4.60
2024-02-24T00:51:43.259Z,4.60
2024-02-24T00:54:10.714Z,4.60
2024-02-24T00:56:38.140Z,4.70
2024-02-24T00:59:05.930Z,4.70
2024-02-24T01:01:33.886Z,4.60
2024-02-24T01:04:02.024Z,4.60
2024-02-24T01:06:29.707Z,4.50
2024-02-24T01:08:57.187Z,4.60
2024-02-24T01:11:24.658Z,4.50
2024-02-24T01:13:52.193Z,4.40
2024-02-24T01:16:19.969Z,4.40
2024-02-24T01:18:47.734Z,4.50
2024-02-24T01:21:15.200Z,4.50
2024-02-24T01:23:43.387Z,4.60
2024-02-24T01:26:10.797Z,4.60
2024-02-24T01:28:38.934Z,4.50
2024-02-24T01:31:06.436Z,4.50
2024-02-24T01:33:34.125Z,4.50
2024-02-24T01:36:01.538Z,4.50
2024-02-24T01:38:29.181Z,4.50
2024-02-24T01:40:56.537Z,4.50
2024-02-24T01:43:29.992Z,4.50
2024-02-24T01:45:58.281Z,4.60
2024-02-24T01:48:26.240Z,4.60
2024-02-24T01:50:54.340Z,4.60
2024-02-24T01:53:23.127Z,4.60
2024-02-24T01:55:51.911Z,4.60
2024-02-24T01:58:19.817Z,4.60
2024-02-24T02:00:48.177Z,4.70
2024-02-24T02:03:15.623Z,4.70
2024-02-24T02:05:43.253Z,4.70
2024-02-24T02:08:10.796Z,4.70
2024-02-24T02:10:44.925Z,4.70
2024-02-24T02:13:12.465Z,4.70
2024-02-24T02:15:40.768Z,4.70
2024-02-24T02:18:08.511Z,4.80
2024-02-24T02:20:36.149Z,4.80
2024-02-24T02:23:04.319Z,4.80
2024-02-24T02:25:31.908Z,4.80
2024-02-24T02:27:59.427Z,4.80
2024-02-24T02:30:26.888Z,4.80
2024-02-24T02:32:54.310Z,4.80
2024-02-24T02:35:21.985Z,4.80
2024-02-24T02:37:49.502Z,4.80
2024-02-24T02:40:17.049Z,4.80
2024-02-24T02:42:44.602Z,4.80
2024-02-24T02:45:12.149Z,4.80
2024-02-24T02:47:39.573Z,4.70
2024-02-24T02:50:08.710Z,4.70
2024-02-24T02:52:36.291Z,4.70
2024-02-24T02:55:03.872Z,4.70
2024-02-24T02:57:31.312Z,4.70
2024-02-24T02:59:58.689Z,4.70
2024-02-24T03:02:26.302Z,4.70
2024-02-24T03:04:54.510Z,4.70
2024-02-24T03:07:22.146Z,4.70
2024-02-24T03:09:50.058Z,4.60
2024-02-24T03:12:17.647Z,4.60
2024-02-24T03:14:45.401Z,4.70
2024-02-24T03:17:13.015Z,4.80
2024-02-24T03:19:41.412Z,4.70
2024-02-24T03:22:09.015Z,4.60
2024-02-24T03:24:36.406Z,4.60
2024-02-24T03:27:03.859Z,4.60
2024-02-24T03:29:31.266Z,4.50
2024-02-24T03:31:58.655Z,4.50
2024-02-24T03:34:26.245Z,4.50
2024-02-24T03:36:54.010Z,4.40
2024-02-24T03:39:25.431Z,4.40
2024-02-24T03:41:52.889Z,4.40
2024-02-24T03:44:20.400Z,4.40
2024-02-24T03:46:47.819Z,4.40
2024-02-24T03:49:15.268Z,4.50
2024-02-24T03:51:42.713Z,4.50
2024-02-24T03:54:11.731Z,4.50
2024-02-24T03:56:39.174Z,4.50
2024-02-24T03:59:08.165Z,4.50
2024-02-24T04:01:35.629Z,4.40
2024-02-24T04:04:03.098Z,4.50
2024-02-24T04:06:30.574Z,4.40
2024-02-24T04:08:58.088Z,4.50
2024-02-24T04:11:25.663Z,4.40
2024-02-24T04:13:53.235Z,4.40
2024-02-24T04:16:21.304Z,4.30
2024-02-24T04:18:48.726Z,4.20
2024-02-24T04:21:18.555Z,4.20
2024-02-24T04:23:46.042Z,4.20
2024-02-24T04:26:13.639Z,4.20
2024-02-24T04:28:42.400Z,4.20
2024-02-24T04:31:09.871Z,4.30
2024-02-24T04:33:37.398Z,4.30
2024-02-24T04:36:05.330Z,4.40
2024-02-24T04:38:32.803Z,4.40
2024-02-24T04:41:00.474Z,4.40
2024-02-24T04:43:27.903Z,4.40
2024-02-24T04:45:55.278Z,4.50
2024-02-24T04:48:22.740Z,4.60
2024-02-24T04:50:50.359Z,4.70
2024-02-24T04:53:17.876Z,4.70
2024-02-24T04:55:45.327Z,4.60
2024-02-24T04:58:12.878Z,4.70
2024-02-24T05:00:40.230Z,4.80
2024-02-24T05:03:07.588Z,4.80
2024-02-24T05:05:35.026Z,4.90
2024-02-24T05:08:02.770Z,4.90
2024-02-24T05:10:30.049Z,5.00
2024-02-24T05:12:57.519Z,4.90
2024-02-24T05:15:26.071Z,5.00
2024-02-24T05:17:53.463Z,5.00
2024-02-24T05:20:21.037Z,5.00
2024-02-24T05:22:48.347Z,5.10
2024-02-24T05:25:18.071Z,5.10
2024-02-24T05:27:45.679Z,5.10
2024-02-24T05:30:13.073Z,5.20
2024-02-24T05:32:40.609Z,5.20
2024-02-24T05:35:08.735Z,5.20
2024-02-24T05:37:36.070Z,5.20
2024-02-24T05:40:03.791Z,5.30
2024-02-24T05:42:31.430Z,5.30
2024-02-24T05:44:59.016Z,5.40
2024-02-24T05:47:28.445Z,5.50
2024-02-24T05:49:56.012Z,5.40
2024-02-24T05:52:23.550Z,5.50
2024-02-24T05:54:50.912Z,5.50
2024-02-24T05:57:23.312Z,5.50
2024-02-24T05:59:52.024Z,5.50
2024-02-24T06:02:23.357Z,5.50
2024-02-24T06:04:51.819Z,5.50
2024-02-24T06:07:23.572Z,5.50
2024-02-24T06:09:53.261Z,5.50
2024-02-24T06:12:20.852Z,5.50
2024-02-24T06:14:48.226Z,5.50
2024-02-24T06:17:15.793Z,5.50
2024-02-24T06:19:43.307Z,5.50
2024-02-24T06:22:10.824Z,5.50
2024-02-24T06:24:38.744Z,5.50
2024-02-24T06:27:07.133Z,5.50
2024-02-24T06:29:36.191Z,5.50
2024-02-24T06:32:04.624Z,5.50
2024-02-24T06:34:32.209Z,5.50
2024-02-24T06:37:01.421Z,5.50
2024-02-24T06:39:29.809Z,5.50
2024-02-24T06:41:58.661Z,5.40
2024-02-24T06:44:27.411Z,5.50
2024-02-24T06:46:55.656Z,5.50
2024-02-24T06:49:23.366Z,5.60
2024-02-24T06:51:55.192Z,5.60
2024-02-24T06:54:22.847Z,5.60
2024-02-24T06:56:50.605Z,5.60
2024-02-24T06:59:19.687Z,5.70
2024-02-24T07:01:47.074Z,5.70
2024-02-24T07:04:15.977Z,5.80
2024-02-24T07:06:43.681Z,5.80
2024-02-24T07:09:11.306Z,5.80
2024-02-24T07:14:20.242Z,5.90
2024-02-24T07:16:47.649Z,6.00
2024-02-24T07:19:15.174Z,6.00
2024-02-24T07:21:44.911Z,5.90
2024-02-24T07:26:58.207Z,6.10
2024-02-24T07:29:25.641Z,6.20
2024-02-24T07:31:54.106Z,6.20
2024-02-24T07:34:21.955Z,6.20
2024-02-24T07:36:49.369Z,6.30
2024-02-24T07:39:17.344Z,6.50
2024-02-24T07:41:45.033Z,6.50
2024-02-24T07:44:14.482Z,6.50
2024-02-24T07:46:43.562Z,6.50
2024-02-24T07:49:11.327Z,6.50
2024-02-24T07:51:40.192Z,6.50
2024-02-24T07:54:07.771Z,6.50
2024-02-24T07:56:35.398Z,6.50
2024-02-24T07:59:07.875Z,6.50
2024-02-24T08:01:35.394Z,6.60
2024-02-24T08:04:02.913Z,6.60
2024-02-24T08:06:30.784Z,6.60
2024-02-24T08:08:58.281Z,6.70
2024-02-24T08:11:25.721Z,6.80
2024-02-24T08:13:53.089Z,6.80
2024-02-24T08:16:23.358Z,6.70
2024-02-24T08:18:51.139Z,6.70
2024-02-24T08:21:23.866Z,6.70
2024-02-24T08:23:51.525Z,6.60
2024-02-24T08:26:18.987Z,6.60
2024-02-24T08:28:46.838Z,6.70
2024-02-24T08:31:14.809Z,6.70
2024-02-24T08:33:43.364Z,6.70
2024-02-24T08:36:15.909Z,6.70
2024-02-24T08:38:44.785Z,6.80
2024-02-24T08:41:12.270Z,6.90
2024-02-24T08:43:39.871Z,7.00
2024-02-24T08:46:09.786Z,7.10
2024-02-24T08:48:38.959Z,7.30
2024-02-24T08:51:06.675Z,7.40
2024-02-24T08:53:34.330Z,7.60
2024-02-24T08:56:02.840Z,7.90
2024-02-24T08:58:30.658Z,8.00
2024-02-24T09:00:59.464Z,8.00
2024-02-24T09:03:26.993Z,8.10
2024-02-24T09:05:54.689Z,8.20
2024-02-24T09:08:22.134Z,8.20
2024-02-24T09:10:49.658Z,8.50
2024-02-24T09:13:17.195Z,8.40
2024-02-24T09:15:44.505Z,8.20
2024-02-24T09:18:12.284Z,8.10
2024-02-24T09:20:39.871Z,7.60
2024-02-24T09:23:07.221Z,7.80
2024-02-24T09:25:34.637Z,7.70
2024-02-24T09:28:02.260Z,7.60
2024-02-24T09:30:29.929Z,7.70
2024-02-24T09:32:57.722Z,7.90
2024-02-24T09:35:25.496Z,8.10
2024-02-24T09:37:53.012Z,8.40
2024-02-24T09:40:20.442Z,8.60
2024-02-24T09:42:48.640Z,8.40
2024-02-24T09:45:16.516Z,8.20
2024-02-24T09:47:45.796Z,8.30
2024-02-24T09:50:13.678Z,8.50
2024-02-24T09:52:43.159Z,8.40
2024-02-24T09:55:11.993Z,8.40
2024-02-24T09:57:41.349Z,8.40
2024-02-24T10:00:09.291Z,8.40
2024-02-24T10:02:36.802Z,8.20
2024-02-24T10:05:05.053Z,8.10
2024-02-24T10:07:34.944Z,8.00
2024-02-24T10:10:02.704Z,7.70
2024-02-24T10:12:31.197Z,7.40
2024-02-24T10:14:58.711Z,7.50
2024-02-24T10:17:32.673Z,7.30
2024-02-24T10:20:00.562Z,7.10
2024-02-24T10:22:31.180Z,7.10
2024-02-24T10:24:58.787Z,7.20
2024-02-24T10:27:28.775Z,7.40
2024-02-24T10:29:56.448Z,7.70
2024-02-24T10:32:25.170Z,8.00
2024-02-24T10:34:54.528Z,8.30
2024-02-24T10:37:22.480Z,8.60
2024-02-24T10:39:51.356Z,8.90
2024-02-24T10:42:19.291Z,8.80
2024-02-24T10:44:47.774Z,8.80
2024-02-24T10:47:15.184Z,8.60
2024-02-24T10:49:43.647Z,8.40
2024-02-24T10:52:11.964Z,8.40
2024-02-24T10:54:41.017Z,8.40
2024-02-24T10:57:09.290Z,8.60
2024-02-24T10:59:37.557Z,8.70
2024-02-24T11:02:06.955Z,9.00
2024-02-24T11:04:38.467Z,8.90
2024-02-24T11:07:19.851Z,10.30
2024-02-24T11:09:55.150Z,12.50
2024-02-24T11:12:23.742Z,13.60
2024-02-24T11:14:54.113Z,15.10
2024-02-24T11:17:51.902Z,16.60
2024-02-24T11:20:41.199Z,17.70
2024-02-24T11:23:26.231Z,18.20
2024-02-24T11:26:12.471Z,18.00
2024-02-24T11:28:41.468Z,17.70
2024-02-24T11:31:09.147Z,15.00
2024-02-24T11:33:39.121Z,13.20
2024-02-24T11:36:07.677Z,13.10
2024-02-24T11:38:35.532Z,15.30
2024-02-24T11:41:06.948Z,17.30
2024-02-24T11:43:34.730Z,18.10
2024-02-24T11:46:05.272Z,15.10
2024-02-24T11:48:32.945Z,13.60
2024-02-24T11:51:00.616Z,14.80
2024-02-24T11:53:31.132Z,15.90
2024-02-24T11:55:58.718Z,16.10
2024-02-24T11:58:27.093Z,17.10
2024-02-24T12:00:56.474Z,19.20
2024-02-24T12:03:25.350Z,19.40
2024-02-24T12:05:53.174Z,18.70
2024-02-24T12:08:24.251Z,19.20
2024-02-24T12:10:51.974Z,18.20
2024-02-24T12:13:19.999Z,18.30
2024-02-24T12:15:48.213Z,19.30
2024-02-24T12:18:15.966Z,19.30
2024-02-24T12:20:50.054Z,15.00
2024-02-24T12:23:18.614Z,13.50
2024-02-24T12:25:50.255Z,14.40
2024-02-24T12:28:18.646Z,15.90
2024-02-24T12:30:46.407Z,16.50
2024-02-24T12:33:18.153Z,18.60
2024-02-24T12:35:50.117Z,20.90
2024-02-24T12:38:19.025Z,22.30
2024-02-24T12:40:46.785Z,22.20
2024-02-24T12:43:14.420Z,19.20
2024-02-24T12:45:41.939Z,17.50
2024-02-24T12:48:09.843Z,14.30
2024-02-24T12:50:37.657Z,12.70
2024-02-24T12:53:07.621Z,11.70
2024-02-24T12:55:36.192Z,12.80
2024-02-24T12:58:04.702Z,13.70
2024-02-24T13:00:32.202Z,15.50
2024-02-24T13:03:02.942Z,16.30
2024-02-24T13:05:30.605Z,17.10
2024-02-24T13:07:58.240Z,17.20
2024-02-24T13:10:25.646Z,17.30
2024-02-24T13:12:53.316Z,15.50
2024-02-24T13:15:20.660Z,15.80
2024-02-24T13:17:48.063Z,16.70
2024-02-24T13:20:15.731Z,17.70
2024-02-24T13:22:43.314Z,16.60
2024-02-24T13:25:11.077Z,13.90
2024-02-24T13:27:38.643Z,15.30
2024-02-24T13:30:06.804Z,15.80
2024-02-24T13:32:34.410Z,18.00
2024-02-24T13:35:02.040Z,18.60
2024-02-24T13:37:31.569Z,15.00
2024-02-24T13:39:58.952Z,13.80
2024-02-24T13:42:27.621Z,12.00
2024-02-24T13:44:56.083Z,11.60
2024-02-24T13:47:23.632Z,11.40
2024-02-24T13:49:51.115Z,11.40
2024-02-24T13:52:18.608Z,11.30
2024-02-24T13:54:45.966Z,12.20
2024-02-24T13:57:13.575Z,12.80
2024-02-24T13:59:41.027Z,12.80
2024-02-24T14:02:08.385Z,12.70
2024-02-24T14:04:35.806Z,12.30
2024-02-24T14:07:03.648Z,13.50
2024-02-24T14:09:31.235Z,15.10
2024-02-24T14:11:58.741Z,16.20
2024-02-24T14:14:27.722Z,17.30
2024-02-24T14:16:55.124Z,18.20
2024-02-24T14:19:24.102Z,19.50
2024-02-24T14:21:51.933Z,20.20
2024-02-24T14:24:19.305Z,20.50
2024-02-24T14:26:46.867Z,20.70
2024-02-24T14:29:14.574Z,21.00
2024-02-24T14:31:42.151Z,21.30
2024-02-24T14:34:09.691Z,20.60
2024-02-24T14:36:37.346Z,18.50
2024-02-24T14:39:06.646Z,16.30
2024-02-24T14:41:34.331Z,15.00
2024-02-24T14:44:02.024Z,14.40
2024-02-24T14:46:29.445Z,15.30
2024-02-24T14:48:57.063Z,14.90
2024-02-24T14:51:24.712Z,14.30
2024-02-24T14:53:52.802Z,14.10
2024-02-24T14:56:20.661Z,15.40
2024-02-24T14:58:48.249Z,15.30
2024-02-24T15:01:16.016Z,15.40
2024-02-24T15:03:45.880Z,16.50
2024-02-24T15:06:17.238Z,16.50
2024-02-24T15:08:44.762Z,15.50
2024-02-24T15:11:12.630Z,15.40
2024-02-24T15:13:40.204Z,14.50
2024-02-24T15:16:10.529Z,13.40
2024-02-24T15:18:37.954Z,12.90
2024-02-24T15:21:06.232Z,12.90
2024-02-24T15:23:33.651Z,12.80
2024-02-24T15:26:01.028Z,12.30
2024-02-24T15:28:28.466Z,11.80
2024-02-24T15:30:55.894Z,11.60
2024-02-24T15:33:23.608Z,11.60
2024-02-24T15:35:51.313Z,11.80
2024-02-24T15:38:18.731Z,12.00
2024-02-24T15:40:46.019Z,12.00
2024-02-24T15:43:13.453Z,11.70
2024-02-24T15:45:40.761Z,11.50
2024-02-24T15:48:08.470Z,11.20
2024-02-24T15:50:36.138Z,11.10
2024-02-24T15:53:03.548Z,11.00
2024-02-24T15:55:30.823Z,10.90
2024-02-24T15:57:58.721Z,10.70
2024-02-24T16:00:26.062Z,10.50
2024-02-24T16:02:53.355Z,10.40
2024-02-24T16:05:22.908Z,10.30
2024-02-24T16:07:50.640Z,10.20
2024-02-24T16:10:18.325Z,10.20
2024-02-24T16:12:46.165Z,10.20
2024-02-24T16:15:13.526Z,10.30
2024-02-24T16:17:41.108Z,10.50
2024-02-24T16:20:09.176Z,10.50
2024-02-24T16:22:36.613Z,10.40
2024-02-24T16:25:04.200Z,10.10
2024-02-24T16:27:31.500Z,9.70
2024-02-24T16:29:59.093Z,9.50
2024-02-24T16:32:26.629Z,9.40
2024-02-24T16:34:54.004Z,9.30
2024-02-24T16:37:23.350Z,9.30
2024-02-24T16:39:51.656Z,9.30
2024-02-24T16:42:18.999Z,9.40
2024-02-24T16:44:46.615Z,9.30
2024-02-24T16:47:15.109Z,8.80
2024-02-24T16:49:42.705Z,8.50
2024-02-24T16:52:10.287Z,8.10
2024-02-24T16:54:40.333Z,7.80
2024-02-24T16:57:10.412Z,7.70
2024-02-24T16:59:39.774Z,7.60
2024-02-24T17:02:10.405Z,7.60
2024-02-24T17:04:38.416Z,7.40
2024-02-24T17:07:05.891Z,7.30
2024-02-24T17:09:33.303Z,7.30
2024-02-24T17:12:01.376Z,7.30
2024-02-24T17:14:28.824Z,7.20
2024-02-24T17:16:56.155Z,7.20
2024-02-24T17:19:23.799Z,7.10
2024-02-24T17:21:51.693Z,7.00
2024-02-24T17:24:19.114Z,6.90
2024-02-24T17:26:47.443Z,6.90
2024-02-24T17:29:15.031Z,6.80
2024-02-24T17:31:42.343Z,6.80
2024-02-24T17:34:09.749Z,6.70
2024-02-24T17:36:40.472Z,6.60
2024-02-24T17:39:08.117Z,6.60
2024-02-24T17:41:36.546Z,6.50
2024-02-24T17:44:03.923Z,6.40
2024-02-24T17:46:31.545Z,6.30
2024-02-24T17:48:59.212Z,6.30
2024-02-24T17:51:27.771Z,6.30
2024-02-24T17:53:55.286Z,6.30
2024-02-24T17:56:23.198Z,6.20
2024-02-24T17:58:50.596Z,6.10
2024-02-24T18:01:18.267Z,6.00
2024-02-24T18:03:45.655Z,6.00
2024-02-24T18:06:13.198Z,5.90
2024-02-24T18:08:40.826Z,5.90
2024-02-24T18:11:10.813Z,5.80
2024-02-24T18:13:39.266Z,5.80
2024-02-24T18:16:09.632Z,5.70
2024-02-24T18:18:37.190Z,5.70
2024-02-24T18:21:05.268Z,5.80
2024-02-24T18:23:32.981Z,5.80
2024-02-24T18:26:01.244Z,5.80
2024-02-24T18:28:36.738Z,5.70
2024-02-24T18:31:04.364Z,5.80
2024-02-24T18:33:32.477Z,5.70
2024-02-24T18:36:00.042Z,5.70
2024-02-24T18:38:27.744Z,5.60
2024-02-24T18:40:55.198Z,5.70
2024-02-24T18:43:23.311Z,5.70
2024-02-24T18:45:51.256Z,5.60
2024-02-24T18:48:19.014Z,5.50
2024-02-24T18:50:46.571Z,5.50
2024-02-24T18:53:14.335Z,5.40
2024-02-24T18:55:41.893Z,5.40
2024-02-24T18:58:09.430Z,5.30
2024-02-24T19:00:37.593Z,5.30
2024-02-24T19:03:05.642Z,5.30
2024-02-24T19:05:33.716Z,5.20
2024-02-24T19:13:52.527Z,5.00
2024-02-24T19:16:20.351Z,5.00
2024-02-24T19:18:48.200Z,5.00
2024-02-24T19:21:15.737Z,5.00
2024-02-24T19:23:43.220Z,5.00
2024-02-24T19:26:10.797Z,4.90
2024-02-24T19:28:40.488Z,4.90
2024-02-24T19:31:07.959Z,4.90
2024-02-24T19:33:35.778Z,5.00
2024-02-24T19:36:03.963Z,5.00
2024-02-24T19:38:31.500Z,5.00
2024-02-24T19:40:58.757Z,5.00
2024-02-24T19:43:26.074Z,4.90
2024-02-24T19:45:54.345Z,4.90
2024-02-24T19:48:21.761Z,4.80
2024-02-24T19:50:50.254Z,4.80
2024-02-24T19:53:17.806Z,4.70
2024-02-24T19:55:45.157Z,4.70
2024-02-24T19:58:21.260Z,4.70
2024-02-24T20:00:56.844Z,4.70
2024-02-24T20:03:24.531Z,4.60
2024-02-24T20:05:52.021Z,4.60
2024-02-24T20:08:19.583Z,4.60
2024-02-24T20:10:46.889Z,4.60
2024-02-24T20:13:14.200Z,4.50
2024-02-24T20:15:42.746Z,4.40
2024-02-24T20:18:10.235Z,4.30
2024-02-24T20:20:37.627Z,4.10
2024-02-24T20:23:05.076Z,4.10
2024-02-24T20:25:32.404Z,4.10
2024-02-24T20:28:00.915Z,4.00
2024-02-24T20:30:28.363Z,4.00
2024-02-24T20:32:55.758Z,3.90
2024-02-24T20:35:28.252Z,3.90
2024-02-24T20:37:55.978Z,3.80
2024-02-24T20:40:23.273Z,3.80
2024-02-24T20:42:50.593Z,3.80
2024-02-24T20:45:17.977Z,3.80
2024-02-24T20:47:45.436Z,3.80
2024-02-24T20:50:14.565Z,3.90
2024-02-24T20:52:41.959Z,3.90
2024-02-24T20:55:09.543Z,3.80
2024-02-24T20:57:37.031Z,3.80
2024-02-24T21:00:05.950Z,3.90
2024-02-24T21:02:33.645Z,3.80
2024-02-24T21:05:01.153Z,3.80
2024-02-24T21:07:28.475Z,3.80
2024-02-24T21:09:55.841Z,3.80
2024-02-24T21:12:23.446Z,3.90
2024-02-24T21:14:51.101Z,3.90
2024-02-24T21:17:18.525Z,3.80
2024-02-24T21:19:46.264Z,3.70
2024-02-24T21:22:14.055Z,3.70
2024-02-24T21:24:42.001Z,3.80
2024-02-24T21:27:09.432Z,3.80
2024-02-24T21:29:36.756Z,3.80
2024-02-24T21:32:05.104Z,3.90
2024-02-24T21:34:32.725Z,3.90
2024-02-24T21:37:00.109Z,3.90
2024-02-24T21:39:27.362Z,3.90
2024-02-24T21:41:54.754Z,3.90
2024-02-24T21:44:22.130Z,3.90
2024-02-24T21:46:49.468Z,3.90
2024-02-24T21:49:19.331Z,3.90
2024-02-24T21:51:46.774Z,3.70
2024-02-24T21:54:15.829Z,3.70
2024-02-24T21:56:51.840Z,3.70
2024-02-24T21:59:19.491Z,3.70
2024-02-24T22:01:46.909Z,3.70
2024-02-24T22:04:14.447Z,3.70
2024-02-24T22:06:41.922Z,3.70
2024-02-24T22:09:09.541Z,3.70
2024-02-24T22:11:39.348Z,3.80
2024-02-24T22:14:06.761Z,3.80
2024-02-24T22:16:34.039Z,3.80
2024-02-24T22:19:01.638Z,3.80
2024-02-24T22:21:29.096Z,3.80
2024-02-24T22:23:56.513Z,3.70
2024-02-24T22:26:25.192Z,3.70
2024-02-24T22:28:53.560Z,3.70
2024-02-24T22:31:21.799Z,3.70
2024-02-24T22:33:49.382Z,3.70
2024-02-24T22:36:16.903Z,3.60
2024-02-24T22:38:44.812Z,3.70
2024-02-24T22:41:12.289Z,3.70
2024-02-24T22:43:39.667Z,3.60
2024-02-24T22:46:08.439Z,3.70
2024-02-24T22:48:35.921Z,3.70
2024-02-24T22:51:03.362Z,3.70
2024-02-24T22:53:30.674Z,3.60
2024-02-24T22:55:58.079Z,3.60
2024-02-24T22:58:25.444Z,3.60
2024-02-24T23:00:52.698Z,3.60
2024-02-24T23:03:23.741Z,3.60
2024-02-24T23:05:51.465Z,3.60
2024-02-24T23:08:18.766Z,3.60
2024-02-24T23:10:46.209Z,3.50
2024-02-24T23:13:13.529Z,3.50
2024-02-24T23:15:40.767Z,3.50
2024-02-24T23:18:09.272Z,3.50
2024-02-24T23:20:36.747Z,3.50
2024-02-24T23:23:04.251Z,3.60
2024-02-24T23:25:32.966Z,3.60
2024-02-24T23:28:00.372Z,3.60
2024-02-24T23:30:27.850Z,3.60
2024-02-24T23:32:55.332Z,3.70
2024-02-24T23:35:23.127Z,3.70
2024-02-24T23:37:50.414Z,3.60
2024-02-24T23:40:17.914Z,3.70
2024-02-24T23:42:45.726Z,3.70
2024-02-24T23:45:13.115Z,3.70
2024-02-24T23:47:42.414Z,3.70
2024-02-24T23:50:10.274Z,3.70
2024-02-24T23:52:37.583Z,3.70
2024-02-24T23:55:06.392Z,3.70
2024-02-24T23:57:35.120Z,3.70
